createdAt,value
2023-04-10T00:04:12.106Z,3.90
2023-04-10T00:09:13.938Z,4.02
2023-04-10T00:14:15.709Z,3.85
2023-04-10T00:19:17.510Z,3.63
2023-04-10T00:24:19.204Z,3.65
2023-04-10T00:29:20.982Z,3.27
2023-04-10T00:34:22.609Z,3.29
2023-04-10T00:39:24.235Z,3.40
2023-04-10T00:44:25.858Z,3.64
2023-04-10T00:49:27.512Z,3.44
2023-04-10T00:54:29.877Z,3.45
2023-04-10T00:59:31.920Z,3.18
2023-04-10T01:04:34.426Z,3.23
2023-04-10T01:09:53.775Z,3.10
2023-04-10T01:15:08.954Z,3.03
2023-04-10T01:20:20.670Z,3.16
2023-04-10T01:25:40.558Z,3.12
2023-04-10T01:30:44.918Z,3.13
2023-04-10T01:35:52.407Z,2.91
2023-04-10T01:40:55.348Z,2.93
2023-04-10T01:46:03.960Z,2.85
2023-04-10T01:51:07.872Z,2.68
2023-04-10T01:56:10.125Z,2.78
2023-04-10T02:01:28.989Z,3.00
2023-04-10T02:06:34.693Z,3.18
2023-04-10T02:11:55.924Z,2.79
2023-04-10T02:16:58.522Z,2.84
2023-04-10T02:22:00.529Z,3.00
2023-04-10T02:27:02.291Z,2.98
2023-04-10T02:32:04.571Z,3.07
2023-04-10T02:37:06.470Z,2.94
2023-04-10T02:42:08.879Z,2.96
2023-04-10T02:47:11.566Z,2.86
2023-04-10T02:52:17.448Z,2.60
2023-04-10T02:57:19.311Z,2.42
2023-04-10T03:02:21.771Z,2.49
2023-04-10T03:07:24.705Z,2.60
2023-04-10T03:12:26.400Z,2.35
2023-04-10T03:17:28.128Z,2.40
2023-04-10T03:22:32.236Z,2.52
2023-04-10T03:27:35.109Z,2.40
2023-04-10T03:32:37.420Z,2.56
2023-04-10T03:37:39.198Z,2.68
2023-04-10T03:42:40.856Z,2.97
2023-04-10T03:47:42.948Z,2.84
2023-04-10T03:52:49.718Z,2.78
2023-04-10T03:57:53.168Z,3.00
2023-04-10T04:02:58.899Z,2.96
2023-04-10T04:08:20.618Z,3.18
2023-04-10T04:13:40.483Z,3.07
2023-04-10T04:18:52.496Z,3.28
2023-04-10T04:24:05.535Z,3.27
2023-04-10T04:29:27.123Z,3.32
2023-04-10T04:34:49.858Z,3.36
2023-04-10T04:40:23.438Z,3.47
2023-04-10T04:45:47.541Z,3.69
2023-04-10T04:51:13.634Z,3.44
2023-04-10T04:56:31.084Z,3.65
2023-04-10T05:01:51.225Z,3.93
2023-04-10T05:07:01.057Z,4.28
2023-04-10T05:12:31.893Z,4.55
2023-04-10T05:17:42.283Z,4.58
2023-04-10T05:22:53.132Z,4.87
2023-04-10T05:28:11.303Z,4.79
2023-04-10T05:33:31.462Z,4.90
2023-04-10T05:38:58.891Z,4.64
2023-04-10T05:44:11.014Z,4.91
2023-04-10T05:49:33.817Z,6.63
2023-04-10T05:54:55.733Z,10.29
2023-04-10T06:00:18.012Z,10.60
2023-04-10T06:05:42.722Z,11.02
2023-04-10T06:10:44.633Z,12.04
2023-04-10T06:15:46.711Z,12.23
2023-04-10T06:20:48.526Z,12.90
2023-04-10T06:25:50.375Z,11.87
2023-04-10T06:30:53.066Z,10.17
2023-04-10T06:35:59.156Z,12.55
2023-04-10T06:41:01.209Z,13.19
2023-04-10T06:46:06.314Z,15.14
2023-04-10T06:51:08.076Z,16.22
2023-04-10T06:56:10.479Z,15.56
2023-04-10T07:01:12.141Z,14.65
2023-04-10T07:06:13.810Z,13.45
2023-04-10T07:11:15.535Z,14.58
2023-04-10T07:16:17.249Z,14.85
2023-04-10T07:21:18.912Z,16.23
2023-04-10T07:26:20.785Z,16.56
2023-04-10T07:31:22.468Z,17.63
2023-04-10T07:36:24.203Z,21.07
2023-04-10T07:41:25.980Z,22.26
2023-04-10T07:46:27.704Z,23.55
2023-04-10T07:51:29.366Z,26.80
2023-04-10T07:56:33.941Z,25.58
2023-04-10T08:01:35.695Z,22.60
2023-04-10T08:06:37.402Z,26.01
2023-04-10T08:11:39.015Z,27.05
2023-04-10T08:16:40.811Z,26.46
2023-04-10T08:21:42.454Z,23.29
2023-04-10T08:26:44.058Z,25.29
2023-04-10T08:31:45.858Z,23.14
2023-04-10T08:36:47.479Z,23.97
2023-04-10T08:41:49.307Z,22.68
2023-04-10T08:46:51.962Z,22.13
2023-04-10T08:51:58.679Z,21.79
2023-04-10T08:57:01.731Z,20.83
2023-04-10T09:02:03.572Z,22.47
2023-04-10T09:07:05.677Z,23.36
2023-04-10T09:12:07.353Z,24.63
2023-04-10T09:17:23.636Z,22.63
2023-04-10T09:22:35.154Z,25.37
2023-04-10T09:27:38.602Z,26.09
2023-04-10T09:32:45.783Z,22.24
2023-04-10T09:37:47.443Z,20.80
2023-04-10T09:42:49.182Z,18.67
2023-04-10T09:48:07.899Z,19.03
2023-04-10T09:53:12.210Z,18.60
2023-04-10T09:58:14.795Z,22.32
2023-04-10T10:03:18.768Z,23.86
2023-04-10T10:08:21.604Z,23.49
2023-04-10T10:13:28.989Z,24.55
2023-04-10T10:18:45.448Z,25.04
2023-04-10T10:23:48.494Z,24.72
2023-04-10T10:28:53.145Z,23.36
2023-04-10T10:33:55.629Z,21.43
2023-04-10T10:39:26.951Z,24.51
2023-04-10T10:44:42.183Z,23.39
2023-04-10T10:49:54.485Z,24.33
2023-04-10T10:54:59.488Z,23.49
2023-04-10T11:00:01.525Z,23.80
2023-04-10T11:05:03.829Z,24.18
2023-04-10T11:10:06.234Z,22.02
2023-04-10T11:15:09.411Z,20.79
2023-04-10T11:20:11.039Z,21.23
2023-04-10T11:25:12.707Z,22.04
2023-04-10T11:30:32.020Z,22.21
2023-04-10T11:35:34.132Z,21.97
2023-04-10T11:40:35.884Z,21.29
2023-04-10T11:45:37.624Z,22.43
2023-04-10T11:50:39.324Z,22.17
2023-04-10T11:55:40.937Z,22.66
2023-04-10T12:00:42.553Z,22.06
2023-04-10T12:05:47.717Z,20.06
2023-04-10T12:10:49.631Z,19.78
2023-04-10T12:15:51.529Z,20.91
2023-04-10T12:20:56.400Z,18.57
2023-04-10T12:26:11.993Z,18.63
2023-04-10T12:31:13.645Z,21.71
2023-04-10T12:36:22.691Z,22.67
2023-04-10T12:41:26.348Z,21.35
2023-04-10T12:46:29.644Z,17.20
2023-04-10T12:51:47.929Z,17.88
2023-04-10T12:56:50.534Z,20.07
2023-04-10T13:01:53.219Z,20.44
2023-04-10T13:06:54.954Z,19.72
2023-04-10T13:11:57.699Z,18.67
2023-04-10T13:16:59.329Z,20.19
2023-04-10T13:22:02.054Z,19.74
2023-04-10T13:27:04.245Z,20.07
2023-04-10T13:32:06.111Z,19.88
2023-04-10T13:37:07.857Z,19.98
2023-04-10T13:42:09.825Z,19.29
2023-04-10T13:47:11.622Z,19.64
2023-04-10T13:52:13.393Z,19.04
2023-04-10T13:57:15.004Z,19.88
2023-04-10T14:02:16.730Z,18.78
2023-04-10T14:07:19.549Z,18.39
2023-04-10T14:12:23.381Z,17.66
2023-04-10T14:17:25.180Z,16.82
2023-04-10T14:22:26.868Z,17.27
2023-04-10T14:27:28.545Z,16.98
2023-04-10T14:32:30.618Z,16.53
2023-04-10T14:37:32.546Z,17.05
2023-04-10T14:42:34.187Z,16.59
2023-04-10T14:47:36.389Z,16.88
2023-04-10T14:52:38.109Z,16.83
2023-04-10T14:57:39.776Z,17.32
2023-04-10T15:02:41.520Z,16.79
2023-04-10T15:07:43.210Z,17.30
2023-04-10T15:12:44.883Z,17.46
2023-04-10T15:17:46.591Z,17.10
2023-04-10T15:22:48.357Z,16.81
2023-04-10T15:27:50.014Z,16.69
2023-04-10T15:32:51.737Z,16.49
2023-04-10T15:37:53.426Z,16.69
2023-04-10T15:42:55.145Z,16.32
2023-04-10T15:47:58.779Z,16.23
2023-04-10T15:53:00.464Z,16.20
2023-04-10T15:58:02.769Z,16.08
2023-04-10T16:03:05.075Z,16.25
2023-04-10T16:08:06.915Z,16.11
2023-04-10T16:13:08.590Z,15.98
2023-04-10T16:18:10.207Z,16.03
2023-04-10T16:23:11.840Z,16.13
2023-04-10T16:28:13.665Z,16.08
2023-04-10T16:33:15.458Z,15.87
2023-04-10T16:38:17.088Z,15.82
2023-04-10T16:43:18.708Z,15.76
2023-04-10T16:48:20.420Z,15.83
2023-04-10T16:53:22.030Z,15.73
2023-04-10T16:58:23.804Z,15.72
2023-04-10T17:03:25.754Z,15.75
2023-04-10T17:08:27.395Z,15.70
2023-04-10T17:13:29.301Z,15.44
2023-04-10T17:18:31.169Z,15.11
2023-04-10T17:23:32.821Z,14.72
2023-04-10T17:28:34.647Z,14.53
2023-04-10T17:33:36.515Z,14.05
2023-04-10T17:38:39.134Z,13.93
2023-04-10T17:43:40.797Z,13.68
2023-04-10T17:48:43.714Z,13.31
2023-04-10T17:53:46.233Z,12.91
2023-04-10T17:58:48.178Z,12.33
2023-04-10T18:03:50.220Z,12.57
2023-04-10T18:08:52.521Z,12.49
2023-04-10T18:13:54.564Z,11.83
2023-04-10T18:18:56.403Z,11.59
2023-04-10T18:23:58.161Z,11.65
2023-04-10T18:29:01.076Z,11.40
2023-04-10T18:34:07.574Z,11.01
2023-04-10T18:39:10.140Z,11.01
2023-04-10T18:44:12.088Z,10.74
2023-04-10T18:49:13.811Z,10.66
2023-04-10T18:54:15.430Z,10.49
2023-04-10T18:59:17.163Z,10.46
2023-04-10T19:04:18.863Z,10.33
2023-04-10T19:09:20.566Z,10.36
2023-04-10T19:14:22.165Z,10.16
2023-04-10T19:19:23.812Z,10.20
2023-04-10T19:24:25.421Z,10.04
2023-04-10T19:29:27.019Z,9.98
2023-04-10T19:34:28.689Z,9.77
2023-04-10T19:39:30.329Z,9.90
2023-04-10T19:44:32.003Z,9.79
2023-04-10T19:49:36.725Z,9.75
2023-04-10T19:54:38.355Z,9.66
2023-04-10T19:59:39.949Z,9.64
2023-04-10T20:04:42.011Z,9.63
2023-04-10T20:09:43.723Z,9.33
2023-04-10T20:14:45.402Z,9.18
2023-04-10T20:19:47.194Z,8.94
2023-04-10T20:24:48.816Z,8.82
2023-04-10T20:29:50.590Z,8.81
2023-04-10T20:34:52.335Z,8.76
2023-04-10T20:39:55.071Z,8.78
2023-04-10T20:44:56.756Z,8.60
2023-04-10T20:49:58.375Z,8.49
2023-04-10T20:55:00.023Z,8.48
2023-04-10T21:00:01.654Z,8.22
2023-04-10T21:05:03.704Z,8.11
2023-04-10T21:10:05.534Z,7.83
2023-04-10T21:15:07.955Z,7.78
2023-04-10T21:20:10.133Z,7.79
2023-04-10T21:25:11.790Z,7.61
2023-04-10T21:30:13.610Z,7.56
2023-04-10T21:35:15.300Z,7.52
2023-04-10T21:40:17.023Z,7.55
2023-04-10T21:45:18.816Z,7.68
2023-04-10T21:50:20.476Z,7.45
2023-04-10T21:55:22.170Z,7.40
2023-04-10T22:00:23.781Z,7.46
2023-04-10T22:05:25.456Z,7.49
2023-04-10T22:10:27.107Z,7.22
2023-04-10T22:15:28.715Z,7.38
2023-04-10T22:20:30.416Z,7.35
2023-04-10T22:25:32.917Z,7.15
2023-04-10T22:30:35.518Z,6.98
2023-04-10T22:35:37.191Z,7.04
2023-04-10T22:40:38.798Z,7.01
2023-04-10T22:45:42.304Z,7.10
2023-04-10T22:50:43.931Z,7.03
2023-04-10T22:55:45.587Z,7.01
2023-04-10T23:00:47.183Z,7.02
2023-04-10T23:05:48.816Z,6.98
2023-04-10T23:10:54.593Z,6.93
2023-04-10T23:15:56.859Z,6.91
2023-04-10T23:20:58.472Z,6.92
2023-04-10T23:26:01.084Z,7.00
2023-04-10T23:31:02.826Z,7.05
2023-04-10T23:36:05.451Z,6.99
2023-04-10T23:41:07.469Z,7.04
2023-04-10T23:46:09.101Z,7.13
2023-04-10T23:51:10.807Z,7.46
2023-04-10T23:56:12.402Z,9.40
